createdAt,value
2018-11-10T00:01:58.185Z,9.23
2018-11-10T00:04:26.746Z,9.24
2018-11-10T00:06:55.383Z,9.26
2018-11-10T00:09:23.964Z,9.28
2018-11-10T00:11:53.266Z,9.30
2018-11-10T00:14:21.887Z,9.32
2018-11-10T00:16:50.461Z,9.32
2018-11-10T00:19:19.146Z,9.31
2018-11-10T00:21:47.682Z,9.31
2018-11-10T00:24:16.477Z,9.31
2018-11-10T00:26:45.068Z,9.32
2018-11-10T00:29:13.723Z,9.33
2018-11-10T00:31:42.258Z,9.33
2018-11-10T00:34:10.791Z,9.33
2018-11-10T00:36:39.367Z,9.34
2018-11-10T00:39:08.995Z,9.37
2018-11-10T00:41:37.558Z,9.38
2018-11-10T00:44:06.308Z,9.39
2018-11-10T00:46:36.526Z,9.38
2018-11-10T00:49:05.579Z,9.40
2018-11-10T00:51:34.218Z,9.43
2018-11-10T00:54:02.883Z,9.40
2018-11-10T00:56:31.471Z,9.41
2018-11-10T00:59:00.071Z,9.42
2018-11-10T01:01:28.747Z,9.42
2018-11-10T01:03:57.279Z,9.43
2018-11-10T01:06:25.802Z,9.47
2018-11-10T01:08:54.373Z,9.48
2018-11-10T01:11:22.983Z,9.47
2018-11-10T01:13:51.529Z,9.48
2018-11-10T01:16:20.056Z,9.49
2018-11-10T01:18:48.611Z,9.52
2018-11-10T01:21:17.155Z,9.51
2018-11-10T01:23:46.049Z,9.56
2018-11-10T01:26:14.596Z,9.55
2018-11-10T01:28:43.149Z,9.54
2018-11-10T01:31:11.686Z,9.54
2018-11-10T01:33:40.378Z,9.56
2018-11-10T01:36:08.918Z,9.57
2018-11-10T01:38:37.443Z,9.57
2018-11-10T01:41:06.427Z,9.59
2018-11-10T01:43:34.939Z,9.61
2018-11-10T01:46:03.481Z,9.61
2018-11-10T01:48:32.025Z,9.64
2018-11-10T01:51:00.570Z,9.67
2018-11-10T01:53:29.108Z,9.67
2018-11-10T01:55:57.690Z,9.70
2018-11-10T01:58:26.237Z,9.73
2018-11-10T02:00:54.874Z,9.75
2018-11-10T02:03:23.497Z,9.75
2018-11-10T02:05:52.317Z,9.77
2018-11-10T02:08:20.901Z,9.78
2018-11-10T02:10:49.453Z,9.81
2018-11-10T02:13:17.986Z,9.83
2018-11-10T02:15:46.547Z,9.87
2018-11-10T02:18:15.064Z,9.89
2018-11-10T02:20:44.055Z,9.90
2018-11-10T02:23:12.577Z,9.89
2018-11-10T02:25:41.174Z,9.98
2018-11-10T02:28:09.770Z,9.96
2018-11-10T02:30:38.360Z,9.94
2018-11-10T02:33:07.034Z,9.92
2018-11-10T02:35:35.549Z,9.92
2018-11-10T02:38:04.067Z,9.92
2018-11-10T02:40:32.710Z,9.95
2018-11-10T02:43:01.239Z,9.96
2018-11-10T02:45:29.798Z,9.96
2018-11-10T02:47:58.334Z,9.96
2018-11-10T02:50:26.869Z,9.99
2018-11-10T02:52:55.355Z,9.99
2018-11-10T02:55:23.939Z,10.01
2018-11-10T02:57:52.723Z,10.02
2018-11-10T03:00:21.249Z,10.03
2018-11-10T03:02:49.790Z,10.04
2018-11-10T03:05:18.295Z,10.04
2018-11-10T03:07:46.917Z,10.06
2018-11-10T03:10:15.497Z,10.07
2018-11-10T03:12:44.095Z,10.11
2018-11-10T03:15:13.329Z,10.12
2018-11-10T03:17:41.896Z,10.16
2018-11-10T03:20:12.597Z,10.25
2018-11-10T03:22:41.464Z,10.26
2018-11-10T03:25:10.528Z,10.28
2018-11-10T03:27:39.117Z,10.33
2018-11-10T03:30:07.894Z,10.37
2018-11-10T03:32:36.945Z,10.42
2018-11-10T03:35:06.428Z,10.45
2018-11-10T03:37:34.934Z,10.48
2018-11-10T03:40:03.547Z,10.50
2018-11-10T03:42:32.121Z,10.51
2018-11-10T03:45:00.655Z,10.55
2018-11-10T03:47:29.185Z,10.55
2018-11-10T03:49:57.817Z,10.58
2018-11-10T03:52:26.321Z,10.59
2018-11-10T03:54:54.902Z,10.65
2018-11-10T03:57:23.482Z,10.71
2018-11-10T03:59:52.095Z,10.73
2018-11-10T04:02:20.879Z,10.74
2018-11-10T04:04:49.557Z,10.77
2018-11-10T04:07:18.079Z,10.79
2018-11-10T04:09:46.609Z,10.80
2018-11-10T04:12:15.616Z,10.86
2018-11-10T04:14:44.364Z,10.93
2018-11-10T04:17:13.056Z,10.97
2018-11-10T04:19:41.579Z,11.01
2018-11-10T04:22:10.137Z,11.04
2018-11-10T04:24:38.820Z,11.03
2018-11-10T04:27:07.338Z,11.05
2018-11-10T04:29:35.964Z,11.07
2018-11-10T04:32:04.864Z,11.08
2018-11-10T04:34:33.401Z,11.08
2018-11-10T04:37:01.943Z,11.06
2018-11-10T04:39:30.525Z,11.05
2018-11-10T04:41:59.078Z,11.07
2018-11-10T04:44:27.597Z,11.07
2018-11-10T04:46:56.232Z,11.08
2018-11-10T04:49:24.874Z,11.09
2018-11-10T04:51:53.435Z,11.14
2018-11-10T04:54:21.967Z,11.15
2018-11-10T04:56:50.515Z,11.18
2018-11-10T04:59:19.192Z,11.23
2018-11-10T05:01:47.725Z,11.24
2018-11-10T05:04:16.984Z,11.24
2018-11-10T05:06:45.507Z,11.24
2018-11-10T05:09:14.050Z,11.24
2018-11-10T05:11:42.652Z,11.23
2018-11-10T05:14:11.226Z,11.27
2018-11-10T05:16:39.745Z,11.30
2018-11-10T05:19:08.267Z,11.33
2018-11-10T05:21:36.837Z,11.35
2018-11-10T05:24:05.587Z,11.36
2018-11-10T05:26:34.140Z,11.39
2018-11-10T05:29:02.727Z,11.45
2018-11-10T05:31:31.380Z,11.54
2018-11-10T05:33:59.937Z,11.57
2018-11-10T05:36:28.454Z,11.66
2018-11-10T05:38:57.097Z,11.65
2018-11-10T05:41:25.642Z,11.73
2018-11-10T05:43:54.182Z,11.78
2018-11-10T05:46:22.706Z,11.77
2018-11-10T05:48:51.269Z,11.77
2018-11-10T05:51:19.814Z,11.83
2018-11-10T05:53:48.369Z,11.83
2018-11-10T05:56:16.940Z,11.86
2018-11-10T05:58:45.511Z,11.89
2018-11-10T06:01:14.157Z,11.91
2018-11-10T06:03:42.747Z,11.94
2018-11-10T06:06:11.472Z,12.00
2018-11-10T06:08:39.965Z,12.06
2018-11-10T06:11:08.561Z,12.10
2018-11-10T06:13:37.162Z,12.11
2018-11-10T06:16:05.982Z,12.14
2018-11-10T06:18:34.533Z,12.22
2018-11-10T06:21:03.409Z,12.24
2018-11-10T06:23:31.929Z,12.24
2018-11-10T06:26:00.602Z,12.29
2018-11-10T06:28:29.167Z,12.31
2018-11-10T06:30:57.837Z,12.31
2018-11-10T06:33:26.384Z,12.31
2018-11-10T06:35:54.923Z,12.29
2018-11-10T06:38:23.788Z,12.28
2018-11-10T06:40:52.329Z,12.26
2018-11-10T06:43:20.913Z,12.22
2018-11-10T06:45:49.664Z,12.24
2018-11-10T06:48:19.157Z,12.21
2018-11-10T06:50:47.717Z,12.17
2018-11-10T06:53:16.305Z,12.16
2018-11-10T06:55:44.798Z,12.15
2018-11-10T06:58:13.339Z,12.11
2018-11-10T07:00:41.846Z,12.07
2018-11-10T07:03:10.496Z,12.06
2018-11-10T07:05:39.036Z,12.05
2018-11-10T07:08:07.635Z,12.03
2018-11-10T07:10:36.168Z,12.07
2018-11-10T07:13:04.761Z,12.08
2018-11-10T07:15:33.306Z,12.15
2018-11-10T07:18:01.950Z,12.18
2018-11-10T07:20:30.455Z,12.22
2018-11-10T07:22:58.968Z,12.22
2018-11-10T07:25:27.533Z,12.27
2018-11-10T07:27:56.682Z,12.30
2018-11-10T07:30:25.314Z,12.31
2018-11-10T07:32:53.844Z,12.33
2018-11-10T07:35:22.416Z,12.34
2018-11-10T07:37:50.889Z,12.38
2018-11-10T07:40:19.510Z,12.44
2018-11-10T07:42:48.130Z,12.50
2018-11-10T07:45:16.997Z,12.51
2018-11-10T07:47:46.094Z,12.54
2018-11-10T07:50:14.677Z,12.54
2018-11-10T07:52:43.560Z,12.57
2018-11-10T07:55:13.509Z,12.62
2018-11-10T07:57:42.086Z,12.66
2018-11-10T08:00:14.101Z,12.64
2018-11-10T08:02:42.685Z,12.67
2018-11-10T08:05:11.907Z,12.67
2018-11-10T08:07:41.495Z,12.72
2018-11-10T08:10:10.615Z,12.75
2018-11-10T08:12:39.546Z,12.83
2018-11-10T08:15:11.753Z,12.87
2018-11-10T08:17:40.780Z,12.87
2018-11-10T08:20:09.841Z,12.88
2018-11-10T08:22:38.364Z,12.89
2018-11-10T08:25:08.698Z,12.99
2018-11-10T08:27:37.165Z,13.03
2018-11-10T08:30:07.412Z,13.06
2018-11-10T08:32:37.066Z,13.07
2018-11-10T08:35:06.179Z,13.09
2018-11-10T08:37:34.730Z,13.06
2018-11-10T08:40:03.386Z,13.08
2018-11-10T08:42:31.886Z,13.08
2018-11-10T08:45:00.392Z,13.12
2018-11-10T08:47:28.946Z,13.09
2018-11-10T08:49:57.561Z,13.08
2018-11-10T08:52:26.411Z,13.09
2018-11-10T08:54:54.971Z,13.09
2018-11-10T08:57:23.497Z,13.04
2018-11-10T08:59:52.102Z,13.03
2018-11-10T09:02:20.634Z,13.02
2018-11-10T09:04:49.118Z,13.00
2018-11-10T09:07:18.435Z,12.97
2018-11-10T09:09:47.092Z,12.98
2018-11-10T09:12:15.638Z,12.98
2018-11-10T09:14:44.194Z,13.02
2018-11-10T09:17:12.794Z,13.02
2018-11-10T09:19:41.337Z,13.05
2018-11-10T09:22:10.466Z,13.07
2018-11-10T09:24:38.979Z,13.11
2018-11-10T09:27:07.538Z,13.15
2018-11-10T09:29:36.305Z,13.22
2018-11-10T09:32:05.428Z,13.27
2018-11-10T09:34:34.423Z,13.31
2018-11-10T09:37:03.320Z,13.32
2018-11-10T09:39:31.898Z,13.36
2018-11-10T09:42:00.513Z,13.37
2018-11-10T09:44:29.112Z,13.33
2018-11-10T09:46:57.686Z,13.36
2018-11-10T09:49:26.215Z,13.36
2018-11-10T09:51:54.755Z,13.37
2018-11-10T09:54:23.753Z,13.41
2018-11-10T09:56:52.333Z,13.41
2018-11-10T09:59:20.842Z,13.39
2018-11-10T10:01:49.702Z,13.39
2018-11-10T10:04:18.379Z,13.41
2018-11-10T10:06:46.877Z,13.43
2018-11-10T10:09:15.478Z,13.45
2018-11-10T10:11:43.967Z,13.51
2018-11-10T10:14:12.599Z,13.50
2018-11-10T10:16:41.124Z,13.51
2018-11-10T10:19:10.233Z,13.50
2018-11-10T10:21:39.581Z,13.49
2018-11-10T10:24:08.491Z,13.45
2018-11-10T10:26:37.199Z,13.42
2018-11-10T10:29:06.481Z,13.45
2018-11-10T10:31:34.920Z,13.48
2018-11-10T10:34:03.553Z,13.45
2018-11-10T10:36:32.074Z,13.47
2018-11-10T10:39:01.221Z,13.47
2018-11-10T10:41:29.862Z,13.52
2018-11-10T10:43:58.421Z,13.54
2018-11-10T10:46:26.967Z,13.54
2018-11-10T10:48:55.600Z,13.60
2018-11-10T10:51:24.057Z,13.61
2018-11-10T10:53:52.588Z,13.63
2018-11-10T10:56:21.202Z,13.65
2018-11-10T10:58:49.736Z,13.70
2018-11-10T11:01:24.296Z,13.75
2018-11-10T11:03:58.162Z,13.80
2018-11-10T11:06:26.864Z,13.81
2018-11-10T11:08:55.444Z,13.84
2018-11-10T11:11:23.917Z,13.85
2018-11-10T11:13:52.491Z,13.88
2018-11-10T11:16:21.040Z,13.94
2018-11-10T11:18:49.590Z,13.95
2018-11-10T11:21:18.108Z,13.97
2018-11-10T11:23:46.685Z,13.96
2018-11-10T11:26:15.226Z,14.00
2018-11-10T11:28:44.188Z,13.95
2018-11-10T11:31:12.860Z,13.99
2018-11-10T11:33:41.415Z,13.97
2018-11-10T11:36:10.089Z,13.95
2018-11-10T11:38:38.657Z,13.93
2018-11-10T11:41:07.200Z,13.91
2018-11-10T11:43:35.714Z,13.91
2018-11-10T11:46:04.229Z,13.89
2018-11-10T11:48:32.799Z,13.91
2018-11-10T11:51:01.362Z,13.90
2018-11-10T11:53:30.133Z,13.89
2018-11-10T11:55:58.673Z,13.90
2018-11-10T11:58:27.390Z,13.90
2018-11-10T12:00:55.782Z,13.92
2018-11-10T12:03:24.295Z,13.96
2018-11-10T12:05:52.847Z,13.97
2018-11-10T12:08:21.515Z,13.97
2018-11-10T12:10:50.073Z,14.02
2018-11-10T12:13:18.565Z,14.04
2018-11-10T12:15:47.103Z,14.04
2018-11-10T12:18:15.649Z,14.04
2018-11-10T12:20:44.227Z,14.02
2018-11-10T12:23:12.785Z,14.02
2018-11-10T12:25:41.435Z,14.02
2018-11-10T12:28:10.050Z,14.01
2018-11-10T12:30:38.578Z,13.96
2018-11-10T12:33:07.398Z,13.98
2018-11-10T12:35:35.963Z,14.00
2018-11-10T12:38:04.551Z,13.98
2018-11-10T12:40:33.121Z,13.99
2018-11-10T12:43:01.739Z,13.98
2018-11-10T12:45:30.688Z,13.96
2018-11-10T12:47:59.294Z,13.96
2018-11-10T12:50:27.879Z,13.97
2018-11-10T12:52:56.725Z,13.95
2018-11-10T12:55:25.253Z,13.87
2018-11-10T12:57:54.023Z,13.87
2018-11-10T13:00:22.507Z,13.84
2018-11-10T13:02:51.076Z,13.83
2018-11-10T13:05:19.644Z,13.82
2018-11-10T13:07:48.549Z,13.79
2018-11-10T13:10:17.178Z,13.79
2018-11-10T13:12:46.144Z,13.75
2018-11-10T13:15:14.691Z,13.75
2018-11-10T13:17:43.576Z,13.76
2018-11-10T13:20:14.241Z,13.76
2018-11-10T13:22:42.861Z,13.76
2018-11-10T13:25:12.319Z,13.77
2018-11-10T13:27:40.846Z,13.76
2018-11-10T13:30:10.975Z,13.76
2018-11-10T13:32:39.522Z,13.76
2018-11-10T13:35:08.787Z,13.75
2018-11-10T13:37:37.345Z,13.73
2018-11-10T13:40:06.535Z,13.71
2018-11-10T13:42:35.107Z,13.67
2018-11-10T13:45:04.047Z,13.64
2018-11-10T13:47:32.686Z,13.65
2018-11-10T13:50:02.090Z,13.62
2018-11-10T13:52:30.969Z,13.62
2018-11-10T13:54:59.223Z,13.60
2018-11-10T13:57:27.979Z,13.61
2018-11-10T13:59:56.527Z,13.60
2018-11-10T14:02:25.236Z,13.60
2018-11-10T14:04:53.804Z,13.62
2018-11-10T14:07:22.421Z,13.62
2018-11-10T14:09:51.042Z,13.64
2018-11-10T14:12:19.644Z,13.64
2018-11-10T14:14:48.270Z,13.63
2018-11-10T14:17:17.534Z,13.62
2018-11-10T14:19:46.041Z,13.62
2018-11-10T14:22:14.544Z,13.60
2018-11-10T14:24:43.232Z,13.61
2018-11-10T14:27:18.227Z,13.62
2018-11-10T14:29:46.723Z,13.62
2018-11-10T14:32:15.235Z,13.63
2018-11-10T14:34:43.938Z,13.64
2018-11-10T14:37:12.643Z,13.63
2018-11-10T14:39:41.187Z,13.64
2018-11-10T14:42:09.833Z,13.65
2018-11-10T14:44:38.341Z,13.66
2018-11-10T14:47:06.865Z,13.67
2018-11-10T14:49:35.379Z,13.67
2018-11-10T14:52:03.889Z,13.65
2018-11-10T14:54:32.484Z,13.69
2018-11-10T14:57:01.004Z,13.68
2018-11-10T14:59:29.514Z,13.67
2018-11-10T15:01:58.089Z,13.65
2018-11-10T15:04:26.675Z,13.66
2018-11-10T15:06:55.211Z,13.63
2018-11-10T15:09:23.722Z,13.64
2018-11-10T15:11:52.532Z,13.65
2018-11-10T15:14:20.965Z,13.62
2018-11-10T15:16:49.516Z,13.60
2018-11-10T15:19:18.717Z,13.62
2018-11-10T15:21:47.282Z,13.58
2018-11-10T15:24:16.024Z,13.57
2018-11-10T15:26:44.823Z,13.54
2018-11-10T15:29:13.425Z,13.50
2018-11-10T15:31:42.015Z,13.49
2018-11-10T15:34:10.566Z,13.45
2018-11-10T15:36:39.123Z,13.44
2018-11-10T15:39:08.118Z,13.38
2018-11-10T15:41:36.755Z,13.35
2018-11-10T15:44:05.338Z,13.34
2018-11-10T15:46:33.909Z,13.29
2018-11-10T15:49:02.461Z,13.29
2018-11-10T15:51:31.131Z,13.29
2018-11-10T15:54:00.523Z,13.27
2018-11-10T15:56:29.062Z,13.24
2018-11-10T15:58:57.664Z,13.23
2018-11-10T16:01:26.231Z,13.20
2018-11-10T16:03:54.776Z,13.19
2018-11-10T16:06:23.419Z,13.14
2018-11-10T16:08:51.993Z,13.10
2018-11-10T16:11:20.591Z,13.09
2018-11-10T16:13:49.120Z,13.08
2018-11-10T16:16:17.704Z,13.09
2018-11-10T16:18:46.304Z,13.09
2018-11-10T16:21:14.862Z,13.08
2018-11-10T16:23:43.417Z,13.09
2018-11-10T16:26:11.995Z,13.07
2018-11-10T16:28:40.650Z,13.06
2018-11-10T16:31:09.203Z,13.06
2018-11-10T16:33:37.836Z,13.03
2018-11-10T16:36:06.430Z,13.03
2018-11-10T16:38:35.013Z,13.04
2018-11-10T16:41:03.639Z,13.03
2018-11-10T16:43:32.296Z,13.03
2018-11-10T16:46:00.892Z,13.00
2018-11-10T16:48:29.437Z,12.99
2018-11-10T16:50:58.069Z,12.97
2018-11-10T16:53:26.874Z,12.97
2018-11-10T16:55:55.385Z,12.98
2018-11-10T16:58:24.015Z,12.94
2018-11-10T17:00:52.577Z,12.92
2018-11-10T17:03:21.212Z,12.92
2018-11-10T17:05:49.788Z,12.89
2018-11-10T17:08:18.442Z,12.89
2018-11-10T17:10:47.317Z,12.86
2018-11-10T17:13:15.936Z,12.85
2018-11-10T17:15:44.510Z,12.86
2018-11-10T17:18:13.134Z,12.85
2018-11-10T17:20:41.994Z,12.81
2018-11-10T17:23:10.544Z,12.80
2018-11-10T17:25:39.143Z,12.78
2018-11-10T17:28:07.803Z,12.77
2018-11-10T17:30:36.431Z,12.77
2018-11-10T17:33:05.046Z,12.75
2018-11-10T17:35:33.647Z,12.73
2018-11-10T17:38:02.300Z,12.71
2018-11-10T17:40:30.763Z,12.71
2018-11-10T17:42:59.287Z,12.76
2018-11-10T17:45:28.136Z,12.73
2018-11-10T17:47:56.703Z,12.74
2018-11-10T17:50:25.196Z,12.76
2018-11-10T17:52:53.967Z,12.77
2018-11-10T17:55:22.412Z,12.78
2018-11-10T17:57:51.012Z,12.78
2018-11-10T18:00:19.606Z,12.78
2018-11-10T18:02:48.179Z,12.76
2018-11-10T18:05:17.520Z,12.77
2018-11-10T18:07:46.345Z,12.76
2018-11-10T18:10:16.157Z,12.77
2018-11-10T18:12:45.450Z,12.78
2018-11-10T18:15:14.495Z,12.75
2018-11-10T18:17:43.516Z,12.76
2018-11-10T18:20:13.435Z,12.74
2018-11-10T18:22:42.351Z,12.74
2018-11-10T18:25:11.154Z,12.73
2018-11-10T18:27:39.774Z,12.73
2018-11-10T18:30:10.408Z,12.72
2018-11-10T18:32:39.005Z,12.73
2018-11-10T18:35:08.374Z,12.72
2018-11-10T18:37:37.033Z,12.72
2018-11-10T18:40:06.199Z,12.73
2018-11-10T18:42:34.742Z,12.76
2018-11-10T18:45:03.378Z,12.75
2018-11-10T18:47:31.935Z,12.77
2018-11-10T18:50:00.516Z,12.78
2018-11-10T18:52:29.258Z,12.78
2018-11-10T18:54:57.699Z,12.79
2018-11-10T18:57:26.471Z,12.78
2018-11-10T18:59:54.924Z,12.77
2018-11-10T19:02:23.517Z,12.78
2018-11-10T19:04:52.047Z,12.76
2018-11-10T19:07:20.979Z,12.80
2018-11-10T19:09:49.563Z,12.79
2018-11-10T19:12:18.293Z,12.78
2018-11-10T19:14:46.910Z,12.78
2018-11-10T19:17:15.551Z,12.73
2018-11-10T19:19:44.192Z,12.70
2018-11-10T19:22:13.071Z,12.68
2018-11-10T19:24:47.917Z,12.69
2018-11-10T19:27:16.508Z,12.69
2018-11-10T19:29:45.113Z,12.67
2018-11-10T19:32:13.753Z,12.66
2018-11-10T19:34:42.435Z,12.66
2018-11-10T19:37:11.072Z,12.67
2018-11-10T19:39:39.693Z,12.68
2018-11-10T19:42:08.259Z,12.69
2018-11-10T19:44:36.939Z,12.70
2018-11-10T19:47:05.536Z,12.71
2018-11-10T19:49:34.173Z,12.72
2018-11-10T19:52:02.875Z,12.73
2018-11-10T19:54:31.406Z,12.77
2018-11-10T19:57:00.532Z,12.78
2018-11-10T19:59:29.198Z,12.85
2018-11-10T20:01:57.784Z,12.87
2018-11-10T20:04:26.366Z,12.85
2018-11-10T20:06:54.984Z,12.85
2018-11-10T20:09:23.482Z,12.89
2018-11-10T20:11:52.116Z,12.90
2018-11-10T20:14:21.115Z,12.91
2018-11-10T20:16:49.727Z,12.90
2018-11-10T20:19:18.278Z,12.91
2018-11-10T20:21:46.829Z,12.90
2018-11-10T20:24:15.416Z,12.92
2018-11-10T20:26:43.945Z,12.92
2018-11-10T20:29:12.497Z,12.93
2018-11-10T20:31:41.050Z,12.92
2018-11-10T20:34:09.623Z,12.94
2018-11-10T20:36:38.333Z,12.93
2018-11-10T20:39:08.452Z,12.94
2018-11-10T20:41:37.177Z,12.92
2018-11-10T20:44:06.486Z,12.91
2018-11-10T20:46:34.972Z,12.91
2018-11-10T20:49:03.490Z,12.90
2018-11-10T20:51:32.043Z,12.92
2018-11-10T20:54:00.666Z,12.92
2018-11-10T20:56:29.242Z,12.94
2018-11-10T20:58:57.790Z,12.93
2018-11-10T21:01:26.480Z,12.94
2018-11-10T21:03:54.990Z,12.93
2018-11-10T21:06:23.786Z,12.92
2018-11-10T21:08:52.378Z,12.94
2018-11-10T21:11:20.972Z,12.94
2018-11-10T21:13:49.533Z,12.93
2018-11-10T21:16:18.222Z,12.93
2018-11-10T21:18:46.760Z,12.94
2018-11-10T21:21:15.423Z,12.94
2018-11-10T21:23:43.967Z,12.95
2018-11-10T21:26:12.453Z,12.97
2018-11-10T21:28:41.045Z,12.98
2018-11-10T21:31:09.596Z,12.94
2018-11-10T21:33:38.161Z,12.95
2018-11-10T21:36:06.709Z,12.96
2018-11-10T21:38:35.468Z,12.99
2018-11-10T21:41:04.047Z,13.01
2018-11-10T21:43:35.684Z,13.00
2018-11-10T21:46:04.193Z,12.98
2018-11-10T21:48:32.736Z,12.99
2018-11-10T21:51:02.361Z,13.00
2018-11-10T21:53:31.114Z,12.99
2018-11-10T21:55:59.636Z,13.00
2018-11-10T21:58:28.261Z,12.96
2018-11-10T22:00:56.795Z,12.90
2018-11-10T22:03:25.335Z,12.88
2018-11-10T22:05:53.872Z,12.85
2018-11-10T22:08:22.596Z,12.81
2018-11-10T22:10:51.228Z,12.82
2018-11-10T22:13:19.843Z,12.80
2018-11-10T22:15:48.392Z,12.77
2018-11-10T22:18:16.999Z,12.77
2018-11-10T22:20:45.502Z,12.75
2018-11-10T22:23:14.093Z,12.73
2018-11-10T22:25:42.748Z,12.72
2018-11-10T22:28:11.289Z,12.73
2018-11-10T22:30:39.795Z,12.73
2018-11-10T22:33:08.347Z,12.73
2018-11-10T22:35:36.881Z,12.75
2018-11-10T22:38:05.471Z,12.76
2018-11-10T22:40:34.144Z,12.76
2018-11-10T22:43:02.737Z,12.77
2018-11-10T22:45:31.300Z,12.76
2018-11-10T22:47:59.924Z,12.77
2018-11-10T22:50:28.586Z,12.75
2018-11-10T22:52:57.181Z,12.77
2018-11-10T22:55:25.760Z,12.77
2018-11-10T22:57:54.346Z,12.79
2018-11-10T23:00:27.331Z,12.80
2018-11-10T23:02:57.242Z,12.79
2018-11-10T23:05:26.198Z,12.80
2018-11-10T23:07:54.737Z,12.82
2018-11-10T23:10:23.543Z,12.83
2018-11-10T23:12:53.059Z,12.83
2018-11-10T23:15:21.620Z,12.83
2018-11-10T23:17:50.170Z,12.82
2018-11-10T23:20:19.438Z,12.82
2018-11-10T23:22:47.970Z,12.82
2018-11-10T23:25:17.598Z,12.82
2018-11-10T23:27:46.447Z,12.82
2018-11-10T23:30:21.137Z,12.81
2018-11-10T23:32:49.970Z,12.78
2018-11-10T23:35:18.532Z,12.76
2018-11-10T23:37:47.070Z,12.75
2018-11-10T23:40:16.728Z,12.74
2018-11-10T23:42:45.453Z,12.75
2018-11-10T23:45:14.704Z,12.72
2018-11-10T23:47:43.341Z,12.72
2018-11-10T23:50:13.365Z,12.71
2018-11-10T23:52:42.027Z,12.71
2018-11-10T23:55:11.554Z,12.69
2018-11-10T23:57:40.145Z,12.67
